createdAt,value
2018-12-07T00:02:15.153Z,18.47
2018-12-07T00:04:45.946Z,17.05
2018-12-07T00:07:23.835Z,16.60
2018-12-07T00:09:54.688Z,18.25
2018-12-07T00:12:25.518Z,17.30
2018-12-07T00:14:56.389Z,17.73
2018-12-07T00:17:27.194Z,17.20
2018-12-07T00:19:58.035Z,18.93
2018-12-07T00:22:28.962Z,17.70
2018-12-07T00:24:59.867Z,16.80
2018-12-07T00:27:30.679Z,16.43
2018-12-07T00:30:01.602Z,16.77
2018-12-07T00:32:33.548Z,16.40
2018-12-07T00:35:04.532Z,17.60
2018-12-07T00:37:35.451Z,16.30
2018-12-07T00:40:06.567Z,16.97
2018-12-07T00:42:37.357Z,17.75
2018-12-07T00:45:08.165Z,17.53
2018-12-07T00:47:39.003Z,17.47
2018-12-07T00:50:09.836Z,17.67
2018-12-07T00:52:40.741Z,17.07
2018-12-07T00:55:23.842Z,17.37
2018-12-07T00:57:54.659Z,18.12
2018-12-07T01:00:25.467Z,18.47
2018-12-07T01:02:57.382Z,18.07
2018-12-07T01:05:28.282Z,17.23
2018-12-07T01:07:59.211Z,17.67
2018-12-07T01:10:30.064Z,17.67
2018-12-07T01:13:00.885Z,20.27
2018-12-07T01:15:31.677Z,19.03
2018-12-07T01:18:02.511Z,18.67
2018-12-07T01:20:33.321Z,18.30
2018-12-07T01:23:04.114Z,16.70
2018-12-07T01:25:34.915Z,18.13
2018-12-07T01:28:05.754Z,16.27
2018-12-07T01:30:36.529Z,18.17
2018-12-07T01:33:07.340Z,18.13
2018-12-07T01:35:38.104Z,17.03
2018-12-07T01:38:08.886Z,18.60
2018-12-07T01:40:39.679Z,18.20
2018-12-07T01:43:10.504Z,17.60
2018-12-07T01:45:41.271Z,16.27
2018-12-07T01:48:12.415Z,16.87
2018-12-07T01:50:43.286Z,16.90
2018-12-07T01:53:14.125Z,18.20
2018-12-07T01:55:44.914Z,17.30
2018-12-07T01:58:15.753Z,19.67
2018-12-07T02:00:46.587Z,18.37
2018-12-07T02:03:17.471Z,18.20
2018-12-07T02:05:48.237Z,18.07
2018-12-07T02:08:19.048Z,19.17
2018-12-07T02:10:49.925Z,18.10
2018-12-07T02:13:20.792Z,16.50
2018-12-07T02:15:51.586Z,17.10
2018-12-07T02:18:22.415Z,15.90
2018-12-07T02:20:53.214Z,17.13
2018-12-07T02:23:24.014Z,17.10
2018-12-07T02:25:54.796Z,17.03
2018-12-07T02:28:25.582Z,16.70
2018-12-07T02:30:56.371Z,16.60
2018-12-07T02:33:27.154Z,16.10
2018-12-07T02:35:58.026Z,15.23
2018-12-07T02:38:28.848Z,16.80
2018-12-07T02:40:59.662Z,15.20
2018-12-07T02:43:30.567Z,15.33
2018-12-07T02:46:01.370Z,15.83
2018-12-07T02:48:32.183Z,16.40
2018-12-07T02:51:03.320Z,15.50
2018-12-07T02:53:34.109Z,17.50
2018-12-07T02:56:04.898Z,17.43
2018-12-07T02:58:35.681Z,16.90
2018-12-07T03:01:06.609Z,16.57
2018-12-07T03:03:37.531Z,18.17
2018-12-07T03:06:08.351Z,17.63
2018-12-07T03:08:39.301Z,15.70
2018-12-07T03:11:10.079Z,15.70
2018-12-07T03:13:40.922Z,16.77
2018-12-07T03:16:11.727Z,14.10
2018-12-07T03:18:42.498Z,16.20
2018-12-07T03:21:13.325Z,15.63
2018-12-07T03:23:44.219Z,15.00
2018-12-07T03:26:15.054Z,14.53
2018-12-07T03:28:46.153Z,13.37
2018-12-07T03:31:17.174Z,14.65
2018-12-07T03:33:50.313Z,15.77
2018-12-07T03:36:21.226Z,15.00
2018-12-07T03:38:52.071Z,16.10
2018-12-07T03:41:22.951Z,16.07
2018-12-07T03:43:53.789Z,15.30
2018-12-07T03:46:24.670Z,16.20
2018-12-07T03:48:55.597Z,15.10
2018-12-07T03:51:26.398Z,16.23
2018-12-07T03:53:57.205Z,15.97
2018-12-07T03:56:27.976Z,15.07
2018-12-07T03:58:58.818Z,14.53
2018-12-07T04:01:29.634Z,15.50
2018-12-07T04:04:00.439Z,15.93
2018-12-07T04:06:31.259Z,15.07
2018-12-07T04:09:03.914Z,15.60
2018-12-07T04:11:35.801Z,15.03
2018-12-07T04:14:06.661Z,13.98
2018-12-07T04:16:37.487Z,15.13
2018-12-07T04:19:08.299Z,14.90
2018-12-07T04:21:39.124Z,13.87
2018-12-07T04:24:09.942Z,12.90
2018-12-07T04:26:40.756Z,13.20
2018-12-07T04:29:11.586Z,13.77
2018-12-07T04:31:42.358Z,13.53
2018-12-07T04:34:13.321Z,12.97
2018-12-07T04:36:44.210Z,14.10
2018-12-07T04:39:15.118Z,12.27
2018-12-07T04:41:45.918Z,13.30
2018-12-07T04:44:16.791Z,15.30
2018-12-07T04:46:47.635Z,14.90
2018-12-07T04:49:18.451Z,15.10
2018-12-07T04:51:49.252Z,16.90
2018-12-07T04:54:20.282Z,13.10
2018-12-07T04:56:51.118Z,13.50
2018-12-07T04:59:22.185Z,12.57
2018-12-07T05:01:53.044Z,14.78
2018-12-07T05:04:23.906Z,14.07
2018-12-07T05:06:54.787Z,14.87
2018-12-07T05:09:26.668Z,14.53
2018-12-07T05:11:57.840Z,14.40
2018-12-07T05:14:28.737Z,14.05
2018-12-07T05:16:59.523Z,14.40
2018-12-07T05:19:30.366Z,13.50
2018-12-07T05:22:01.186Z,13.30
2018-12-07T05:24:32.011Z,14.17
2018-12-07T05:27:03.040Z,13.23
2018-12-07T05:29:33.833Z,11.90
2018-12-07T05:32:04.632Z,13.70
2018-12-07T05:34:35.430Z,12.17
2018-12-07T05:37:06.255Z,13.67
2018-12-07T05:39:37.064Z,13.13
2018-12-07T05:42:07.830Z,13.23
2018-12-07T05:44:38.734Z,12.70
2018-12-07T05:47:09.531Z,14.83
2018-12-07T05:49:40.363Z,13.53
2018-12-07T05:52:11.242Z,14.10
2018-12-07T05:54:42.075Z,12.87
2018-12-07T05:57:12.952Z,14.20
2018-12-07T05:59:43.751Z,13.20
2018-12-07T06:02:14.527Z,12.20
2018-12-07T06:04:45.390Z,12.77
2018-12-07T06:07:16.198Z,13.57
2018-12-07T06:09:47.134Z,14.03
2018-12-07T06:12:18.053Z,13.93
2018-12-07T06:14:48.898Z,14.90
2018-12-07T06:17:19.720Z,12.87
2018-12-07T06:19:50.524Z,14.00
2018-12-07T06:22:21.315Z,12.37
2018-12-07T06:24:52.264Z,12.93
2018-12-07T06:27:23.029Z,14.20
2018-12-07T06:29:53.825Z,13.23
2018-12-07T06:32:24.609Z,14.47
2018-12-07T06:34:55.435Z,12.90
2018-12-07T06:37:26.262Z,11.60
2018-12-07T06:39:57.216Z,12.07
2018-12-07T06:42:28.062Z,11.20
2018-12-07T06:44:58.888Z,12.93
2018-12-07T06:47:29.697Z,13.17
2018-12-07T06:50:00.518Z,13.90
2018-12-07T06:52:31.425Z,12.80
2018-12-07T06:55:03.082Z,12.50
2018-12-07T06:57:33.882Z,13.00
2018-12-07T07:00:06.114Z,12.87
2018-12-07T07:02:36.935Z,14.73
2018-12-07T07:05:07.862Z,13.70
2018-12-07T07:07:38.674Z,13.17
2018-12-07T07:10:09.487Z,13.60
2018-12-07T07:12:40.305Z,13.40
2018-12-07T07:15:11.214Z,12.97
2018-12-07T07:17:41.999Z,13.20
2018-12-07T07:20:12.837Z,13.47
2018-12-07T07:22:43.670Z,12.17
2018-12-07T07:25:14.519Z,14.20
2018-12-07T07:27:45.287Z,12.43
2018-12-07T07:30:16.114Z,12.00
2018-12-07T07:32:46.986Z,12.30
2018-12-07T07:35:17.923Z,11.20
2018-12-07T07:37:48.680Z,11.90
2018-12-07T07:40:19.508Z,11.73
2018-12-07T07:42:50.280Z,11.57
2018-12-07T07:45:21.116Z,11.73
2018-12-07T07:47:51.940Z,11.50
2018-12-07T07:50:22.730Z,13.10
2018-12-07T07:52:53.529Z,12.23
2018-12-07T07:55:24.352Z,11.73
2018-12-07T07:57:55.145Z,11.30
2018-12-07T08:00:25.977Z,11.57
2018-12-07T08:02:59.890Z,10.87
2018-12-07T08:05:29.608Z,10.90
2018-12-07T08:08:00.398Z,11.63
2018-12-07T08:10:31.221Z,11.50
2018-12-07T08:13:02.026Z,12.10
2018-12-07T08:15:32.786Z,12.17
2018-12-07T08:18:03.690Z,13.20
2018-12-07T08:20:34.474Z,13.70
2018-12-07T08:23:05.409Z,12.27
2018-12-07T08:25:36.251Z,11.00
2018-12-07T08:28:07.048Z,12.13
2018-12-07T08:30:38.047Z,11.47
2018-12-07T08:33:08.905Z,11.80
2018-12-07T08:35:40.213Z,12.07
2018-12-07T08:38:11.052Z,12.03
2018-12-07T08:40:41.875Z,12.80
2018-12-07T08:43:12.694Z,11.20
2018-12-07T08:45:43.517Z,12.00
2018-12-07T08:48:14.293Z,11.30
2018-12-07T08:50:45.110Z,11.07
2018-12-07T08:53:15.896Z,11.00
2018-12-07T08:55:46.724Z,10.57
2018-12-07T08:58:17.530Z,9.47
2018-12-07T09:00:48.418Z,10.37
2018-12-07T09:03:19.224Z,9.00
2018-12-07T09:05:50.056Z,10.10
2018-12-07T09:08:20.837Z,9.90
2018-12-07T09:10:51.675Z,10.20
2018-12-07T09:13:29.218Z,11.00
2018-12-07T09:16:00.000Z,10.48
2018-12-07T09:18:30.760Z,8.60
2018-12-07T09:21:01.550Z,9.57
2018-12-07T09:23:49.681Z,9.57
2018-12-07T09:26:20.253Z,8.95
2018-12-07T09:28:51.121Z,9.27
2018-12-07T09:31:21.962Z,8.93
2018-12-07T09:33:52.786Z,10.23
2018-12-07T09:36:23.553Z,10.00
2018-12-07T09:38:54.444Z,9.63
2018-12-07T09:41:25.266Z,9.10
2018-12-07T09:43:56.026Z,9.87
2018-12-07T09:46:26.818Z,9.37
2018-12-07T09:48:57.597Z,9.33
2018-12-07T09:51:28.376Z,9.30
2018-12-07T09:53:59.169Z,8.50
2018-12-07T09:56:30.007Z,8.10
2018-12-07T09:59:00.805Z,8.63
2018-12-07T10:01:31.601Z,8.13
2018-12-07T10:04:02.591Z,8.03
2018-12-07T10:06:33.363Z,8.50
2018-12-07T10:09:05.483Z,7.70
2018-12-07T10:11:36.281Z,8.00
2018-12-07T10:14:07.112Z,6.97
2018-12-07T10:16:37.915Z,6.23
2018-12-07T10:19:08.797Z,7.60
2018-12-07T10:21:39.605Z,6.87
2018-12-07T10:24:10.378Z,6.07
2018-12-07T10:26:41.317Z,4.40
2018-12-07T10:29:12.117Z,3.93
2018-12-07T10:31:42.955Z,4.00
2018-12-07T10:34:13.770Z,2.73
2018-12-07T10:36:44.605Z,4.30
2018-12-07T10:39:15.402Z,2.80
2018-12-07T10:41:46.203Z,2.57
2018-12-07T10:44:16.973Z,2.40
2018-12-07T10:46:47.896Z,3.00
2018-12-07T10:49:18.665Z,2.90
2018-12-07T10:51:49.431Z,2.40
2018-12-07T10:54:20.271Z,2.30
2018-12-07T10:56:51.200Z,2.60
2018-12-07T10:59:21.956Z,2.17
2018-12-07T11:01:58.877Z,2.10
2018-12-07T11:04:35.800Z,2.20
2018-12-07T11:07:12.808Z,2.30
2018-12-07T11:09:49.811Z,2.23
2018-12-07T11:12:26.624Z,2.00
2018-12-07T11:15:03.434Z,1.80
2018-12-07T11:21:02.958Z,2.03
2018-12-07T11:23:39.961Z,2.03
2018-12-07T11:26:16.821Z,2.33
2018-12-07T11:28:53.580Z,2.20
2018-12-07T11:31:30.504Z,1.70
2018-12-07T11:34:03.284Z,2.00
2018-12-07T11:36:34.081Z,1.93
2018-12-07T11:39:06.332Z,2.03
2018-12-07T11:41:37.092Z,2.07
2018-12-07T11:44:07.866Z,1.73
2018-12-07T11:46:38.634Z,2.17
2018-12-07T11:49:09.389Z,2.00
2018-12-07T11:51:40.126Z,1.97
2018-12-07T11:54:15.060Z,1.70
2018-12-07T11:56:45.906Z,1.83
2018-12-07T11:59:16.662Z,2.03
2018-12-07T12:01:47.397Z,1.93
2018-12-07T12:04:18.250Z,1.73
2018-12-07T12:06:48.984Z,2.50
2018-12-07T12:09:19.853Z,1.60
2018-12-07T12:11:50.585Z,2.07
2018-12-07T12:14:21.329Z,2.20
2018-12-07T12:16:57.169Z,2.00
2018-12-07T12:19:27.909Z,1.90
2018-12-07T12:21:59.676Z,1.93
2018-12-07T12:24:30.422Z,1.97
2018-12-07T12:27:01.145Z,1.43
2018-12-07T12:29:32.889Z,1.20
2018-12-07T12:32:04.818Z,1.47
2018-12-07T12:34:36.625Z,1.50
2018-12-07T12:37:07.361Z,1.33
2018-12-07T12:39:38.084Z,1.40
2018-12-07T12:42:08.822Z,1.27
2018-12-07T12:44:39.669Z,1.47
2018-12-07T12:47:11.508Z,1.37
2018-12-07T12:49:42.248Z,1.20
2018-12-07T12:52:12.984Z,1.60
2018-12-07T12:54:43.732Z,1.37
2018-12-07T12:57:14.449Z,1.10
2018-12-07T12:59:45.564Z,1.33
2018-12-07T13:02:16.390Z,1.50
2018-12-07T13:04:48.173Z,1.20
2018-12-07T13:07:19.954Z,1.50
2018-12-07T13:09:51.746Z,1.50
2018-12-07T13:12:22.493Z,1.30
2018-12-07T13:14:53.506Z,1.00
2018-12-07T13:17:24.221Z,1.20
2018-12-07T13:19:54.993Z,1.40
2018-12-07T13:22:25.750Z,2.27
2018-12-07T13:24:56.529Z,1.50
2018-12-07T13:27:27.260Z,1.30
2018-12-07T13:29:58.033Z,1.57
2018-12-07T13:32:28.769Z,1.43
2018-12-07T13:34:59.552Z,1.60
2018-12-07T13:37:30.402Z,1.40
2018-12-07T13:40:01.563Z,1.87
2018-12-07T13:42:32.530Z,2.20
2018-12-07T13:45:05.246Z,2.03
2018-12-07T13:47:36.449Z,2.00
2018-12-07T13:50:13.899Z,2.47
2018-12-07T13:52:44.701Z,2.00
2018-12-07T13:55:15.668Z,1.50
2018-12-07T13:57:46.458Z,1.40
2018-12-07T14:00:19.543Z,1.40
2018-12-07T14:02:50.380Z,1.50
2018-12-07T14:05:21.216Z,1.37
2018-12-07T14:07:52.339Z,1.60
2018-12-07T14:10:23.425Z,1.27
2018-12-07T14:12:54.282Z,1.60
2018-12-07T14:15:25.129Z,1.40
2018-12-07T14:17:56.195Z,1.50
2018-12-07T14:20:27.129Z,1.43
2018-12-07T14:22:57.933Z,1.30
2018-12-07T14:25:33.373Z,1.40
2018-12-07T14:28:04.328Z,1.40
2018-12-07T14:30:36.019Z,1.60
2018-12-07T14:33:07.187Z,1.30
2018-12-07T14:35:45.064Z,1.23
2018-12-07T14:38:16.171Z,1.30
2018-12-07T14:40:47.074Z,1.57
2018-12-07T14:43:18.000Z,1.57
2018-12-07T14:45:49.167Z,2.37
2018-12-07T14:48:21.033Z,2.20
2018-12-07T14:50:52.105Z,9.77
2018-12-07T14:53:22.922Z,7.77
2018-12-07T14:55:54.067Z,3.30
2018-12-07T14:58:24.881Z,4.20
2018-12-07T15:00:55.916Z,3.37
2018-12-07T15:03:27.042Z,2.60
2018-12-07T15:05:58.137Z,2.90
2018-12-07T15:08:29.086Z,2.53
2018-12-07T15:11:00.098Z,2.97
2018-12-07T15:13:31.082Z,2.10
2018-12-07T15:16:02.233Z,3.80
2018-12-07T15:18:33.096Z,3.77
2018-12-07T15:21:04.143Z,4.87
2018-12-07T15:23:36.948Z,3.77
2018-12-07T15:26:07.882Z,2.87
2018-12-07T15:28:38.876Z,2.10
2018-12-07T15:31:09.946Z,2.73
2018-12-07T15:33:41.099Z,2.33
2018-12-07T15:36:12.138Z,1.80
2018-12-07T15:38:43.081Z,2.50
2018-12-07T15:41:14.118Z,2.70
2018-12-07T15:43:44.989Z,4.23
2018-12-07T15:46:16.031Z,4.03
2018-12-07T15:48:46.866Z,5.97
2018-12-07T15:51:17.945Z,5.70
2018-12-07T15:53:48.986Z,5.00
2018-12-07T15:56:20.020Z,5.03
2018-12-07T15:58:50.925Z,5.43
2018-12-07T16:01:21.947Z,5.80
2018-12-07T16:03:59.850Z,6.60
2018-12-07T16:06:30.883Z,7.13
2018-12-07T16:09:03.236Z,6.83
2018-12-07T16:11:34.147Z,6.60
2018-12-07T16:14:05.388Z,7.53
2018-12-07T16:16:36.368Z,8.10
2018-12-07T16:19:07.199Z,7.20
2018-12-07T16:21:38.213Z,7.80
2018-12-07T16:24:09.316Z,8.17
2018-12-07T16:26:40.205Z,6.93
2018-12-07T16:29:11.018Z,8.40
2018-12-07T16:31:42.118Z,9.03
2018-12-07T16:34:13.227Z,7.63
2018-12-07T16:36:44.332Z,9.23
2018-12-07T16:39:15.193Z,8.53
2018-12-07T16:41:46.172Z,8.10
2018-12-07T16:44:17.052Z,8.40
2018-12-07T16:46:48.259Z,7.73
2018-12-07T16:49:19.284Z,8.70
2018-12-07T16:51:50.256Z,8.80
2018-12-07T16:54:21.212Z,8.63
2018-12-07T16:56:52.286Z,9.17
2018-12-07T16:59:23.360Z,8.70
2018-12-07T17:01:54.351Z,8.83
2018-12-07T17:04:25.211Z,8.23
2018-12-07T17:06:56.080Z,9.07
2018-12-07T17:09:26.944Z,10.30
2018-12-07T17:11:57.896Z,13.20
2018-12-07T17:14:36.028Z,16.37
2018-12-07T17:17:06.945Z,10.03
2018-12-07T17:19:37.807Z,9.97
2018-12-07T17:22:08.832Z,10.67
2018-12-07T17:24:39.745Z,9.78
2018-12-07T17:27:10.559Z,10.53
2018-12-07T17:29:42.673Z,10.37
2018-12-07T17:32:13.821Z,9.33
2018-12-07T17:34:45.109Z,6.62
2018-12-07T17:37:16.390Z,5.40
2018-12-07T17:39:47.333Z,4.03
2018-12-07T17:42:18.322Z,3.80
2018-12-07T17:44:49.257Z,2.90
2018-12-07T17:47:20.030Z,4.00
2018-12-07T17:49:50.784Z,2.90
2018-12-07T17:52:21.602Z,2.70
2018-12-07T17:54:52.707Z,2.40
2018-12-07T17:57:23.709Z,2.87
2018-12-07T17:59:54.713Z,8.37
2018-12-07T18:02:25.648Z,3.23
2018-12-07T18:04:59.641Z,2.80
2018-12-07T18:07:31.109Z,3.90
2018-12-07T18:10:03.589Z,3.87
2018-12-07T18:12:34.613Z,2.83
2018-12-07T18:15:06.012Z,3.80
2018-12-07T18:17:36.878Z,2.27
2018-12-07T18:20:08.388Z,3.00
2018-12-07T18:22:39.279Z,2.10
2018-12-07T18:25:11.111Z,2.30
2018-12-07T18:27:42.218Z,1.60
2018-12-07T18:30:13.117Z,2.00
2018-12-07T18:32:44.267Z,2.03
2018-12-07T18:35:15.265Z,1.70
2018-12-07T18:37:48.575Z,1.70
2018-12-07T18:40:19.786Z,2.00
2018-12-07T18:42:50.663Z,2.20
2018-12-07T18:45:21.890Z,1.80
2018-12-07T18:47:53.840Z,2.33
2018-12-07T18:50:24.992Z,2.67
2018-12-07T18:52:56.136Z,1.90
2018-12-07T18:55:27.221Z,2.10
2018-12-07T18:57:58.214Z,1.97
2018-12-07T19:00:29.010Z,1.95
2018-12-07T19:03:00.062Z,1.93
2018-12-07T19:05:38.086Z,1.70
2018-12-07T19:08:09.010Z,1.60
2018-12-07T19:10:39.917Z,1.60
2018-12-07T19:13:10.848Z,1.53
2018-12-07T19:15:50.235Z,1.90
2018-12-07T19:18:21.167Z,2.00
2018-12-07T19:20:52.053Z,1.83
2018-12-07T19:23:23.191Z,1.73
2018-12-07T19:25:54.044Z,1.73
2018-12-07T19:28:29.485Z,1.67
2018-12-07T19:31:00.724Z,1.92
2018-12-07T19:33:31.581Z,1.30
2018-12-07T19:36:02.363Z,2.20
2018-12-07T19:38:33.326Z,2.00
2018-12-07T19:41:04.568Z,2.17
2018-12-07T19:43:35.789Z,1.90
2018-12-07T19:46:06.626Z,1.80
2018-12-07T19:48:37.559Z,1.73
2018-12-07T19:51:08.504Z,2.00
2018-12-07T19:53:39.565Z,3.53
2018-12-07T19:56:10.555Z,2.20
2018-12-07T19:58:41.421Z,2.45
2018-12-07T20:01:12.249Z,2.13
2018-12-07T20:03:43.089Z,2.10
2018-12-07T20:06:23.687Z,2.30
2018-12-07T20:08:55.887Z,2.50
2018-12-07T20:11:33.140Z,2.60
2018-12-07T20:14:08.739Z,2.87
2018-12-07T20:16:39.557Z,2.70
2018-12-07T20:19:10.413Z,1.73
2018-12-07T20:21:41.306Z,1.87
2018-12-07T20:24:17.464Z,2.00
2018-12-07T20:26:53.753Z,2.00
2018-12-07T20:29:24.730Z,3.10
2018-12-07T20:32:04.460Z,3.00
2018-12-07T20:34:35.519Z,2.05
2018-12-07T20:37:06.688Z,1.97
2018-12-07T20:39:37.678Z,1.55
2018-12-07T20:42:08.683Z,1.95
2018-12-07T20:44:39.508Z,2.20
2018-12-07T20:47:10.933Z,1.80
2018-12-07T20:49:42.494Z,1.95
2018-12-07T20:52:13.657Z,1.52
2018-12-07T20:54:44.704Z,2.08
2018-12-07T20:57:15.550Z,2.10
2018-12-07T20:59:53.370Z,3.03
2018-12-07T21:02:24.338Z,2.40
2018-12-07T21:04:56.646Z,2.60
2018-12-07T21:07:43.419Z,2.10
2018-12-07T21:10:51.308Z,1.82
2018-12-07T21:19:55.362Z,1.80
2018-12-07T21:22:26.528Z,2.33
2018-12-07T21:24:57.668Z,2.17
2018-12-07T21:27:29.784Z,1.92
2018-12-07T21:30:07.310Z,2.35
2018-12-07T21:32:41.635Z,2.00
2018-12-07T21:35:12.734Z,2.40
2018-12-07T21:37:43.895Z,2.45
2018-12-07T21:40:15.159Z,2.00
2018-12-07T21:42:46.165Z,2.33
2018-12-07T21:45:17.335Z,2.05
2018-12-07T21:48:04.320Z,2.08
2018-12-07T21:50:36.933Z,2.37
2018-12-07T21:53:07.985Z,1.77
2018-12-07T21:55:38.936Z,2.20
2018-12-07T21:58:09.786Z,2.30
2018-12-07T22:00:40.913Z,2.40
2018-12-07T22:03:11.834Z,2.10
2018-12-07T22:05:42.936Z,2.20
2018-12-07T22:08:15.970Z,2.35
2018-12-07T22:10:46.938Z,2.65
2018-12-07T22:13:17.858Z,2.35
2018-12-07T22:15:48.704Z,2.60
2018-12-07T22:18:19.674Z,2.70
2018-12-07T22:20:54.171Z,2.50
2018-12-07T22:23:25.066Z,2.70
2018-12-07T22:25:55.938Z,2.63
2018-12-07T22:28:26.952Z,2.00
2018-12-07T22:30:57.940Z,2.55
2018-12-07T22:33:28.742Z,2.57
2018-12-07T22:35:59.757Z,2.73
2018-12-07T22:38:30.960Z,3.45
2018-12-07T22:41:01.938Z,1.72
2018-12-07T22:43:32.845Z,1.35
2018-12-07T22:46:03.895Z,1.70
2018-12-07T22:48:36.027Z,1.70
2018-12-07T22:51:06.837Z,1.30
2018-12-07T22:53:37.573Z,1.67
2018-12-07T22:56:08.326Z,1.00
2018-12-07T22:58:40.220Z,1.20
2018-12-07T23:01:12.280Z,0.90
2018-12-07T23:03:43.138Z,1.22
2018-12-07T23:06:13.888Z,0.80
2018-12-07T23:08:44.746Z,0.90
2018-12-07T23:11:15.512Z,1.10
2018-12-07T23:13:46.247Z,0.90
2018-12-07T23:16:16.980Z,1.07
2018-12-07T23:18:47.937Z,0.90
2018-12-07T23:21:18.790Z,1.00
2018-12-07T23:23:49.549Z,0.80
2018-12-07T23:26:20.283Z,0.80
2018-12-07T23:28:51.049Z,0.70
2018-12-07T23:31:22.109Z,0.60
2018-12-07T23:33:52.872Z,0.63
2018-12-07T23:36:31.165Z,0.90
2018-12-07T23:39:02.042Z,0.68
2018-12-07T23:41:32.886Z,0.80
2018-12-07T23:44:03.637Z,0.77
2018-12-07T23:46:34.526Z,0.70
2018-12-07T23:49:05.414Z,0.67
2018-12-07T23:51:36.162Z,0.70
2018-12-07T23:54:07.037Z,0.70
2018-12-07T23:56:37.882Z,0.80
2018-12-07T23:59:08.679Z,0.90
